This is the latest recevied weather packets stored in our database for station/object R2AKT-13. If no packets are shown the sender has not sent any weather packets the latest 10 day(s).
| Time | Temp. | Humidity | Pressure | Rain* | Wind** | Luminosity | Snow |
|---|---|---|---|---|---|---|---|
| 1788717892 | 11.67° C | 80% | 982.3 hPa | - | 0 m/s | - | - |
| 1788717336 | 12.22° C | 79% | 982.2 hPa | - | 0.45 m/s, 242° | - | - |
| 1788716831 | 12.22° C | 78% | 982.2 hPa | - | 0.45 m/s, 177° | - | - |
| 1788716296 | 12.22° C | 78% | 982.1 hPa | - | 0.45 m/s, 168° | - | - |
| 1788715806 | 12.78° C | 81% | 982.1 hPa | - | 0.45 m/s, 211° | - | - |
| 1788715251 | 12.78° C | 82% | 982.1 hPa | - | 0 m/s | - | - |
| 1788714681 | 12.78° C | 83% | 982.1 hPa | - | 0.45 m/s, 220° | - | - |
| 1788714179 | 12.78° C | 82% | 982 hPa | - | 0.45 m/s, 177° | - | - |
| 1788713656 | 13.33° C | 80% | 981.9 hPa | - | 0 m/s | - | - |
| 1788713063 | 13.89° C | 79% | 981.8 hPa | - | 0 m/s | - | - |
| 1788712586 | 13.89° C | 80% | 981.6 hPa | - | 0 m/s | - | - |
| 1788712101 | 13.89° C | 79% | 981.5 hPa | - | 0 m/s | - | - |
| 1788711531 | 13.89° C | 79% | 981.4 hPa | - | 0 m/s | - | - |
| 1788711038 | 13.89° C | 79% | 981.3 hPa | - | 0 m/s | - | - |
| 1788710556 | 13.89° C | 79% | 981.1 hPa | - | 0 m/s | - | - |
| 1788709971 | 13.89° C | 79% | 981 hPa | - | 0 m/s | - | - |
| 1788709491 | 13.89° C | 79% | 980.9 hPa | - | 0 m/s | - | - |
| 1788708916 | 13.89° C | 79% | 980.8 hPa | - | 0 m/s | - | - |
| 1788708331 | 14.44° C | 76% | 980.6 hPa | - | 0 m/s | - | - |
| 1788707731 | 15° C | 73% | 980.6 hPa | - | 0 m/s | - | - |
| 1788707191 | 14.44° C | 77% | 980.7 hPa | - | 0 m/s | - | - |
| 1788706601 | 14.44° C | 76% | 980.6 hPa | - | 0 m/s | - | - |
| 1788706072 | 15.56° C | 72% | 980.5 hPa | - | 0 m/s | - | - |
| 1788705491 | 16.11° C | 71% | 980.6 hPa | - | 0 m/s | - | - |
| 1788705001 | 16.67° C | 68% | 980.4 hPa | - | 0 m/s | - | - |
* Rain since midnight (hover to see other rain measurements)
** Current wind speed in m/s (hover to see current wind gust speed)